View Sortable Currents For Network
ASOSAWOSCoCoRaHSCOOPDCPISUSM
SchoolNetOtherSCANMy FavoritesBy StateRWIS
RWIS SurfaceRWIS TrafficRWIS SoilBy NWS WFOUSCRN

Current AWOS Conditions

** This page will automatically refresh every five minutes.
Sorted by: (Altimeter)     Click on a column to sort it.

Add ID: Name: Ob Time   Wind [knots]   Rainfall
Temp (Hi / Lo) DewP Feels RH% Dir Speed Peak Gust
@ Time
Alti Vsby Hour Today
FSWFORT MADISON09:55 PM 34(36/27) 25 27 69 210 816 @ 01:55 AM 30.18 10 0
ICLCLARINDA09:55 PM 30(39/9) 27 24 88 190 513 @ 02:55 PM 30.18 10 0
EOKKEOKUK MUNI09:55 PM 32(36/27) 25 210 918 @ 01:35 AM 30.18 10 0
SDASHENANDOAH MUNI09:55 PM 32(41/12) 30 0 012 @ 11:55 AM 30.17 10 0
TVKCenterville09:55 PM 32(36/23) 27 210 1011 @ 12:15 AM 30.17 10 0
MUTMUSCATINE09:55 PM 32(34/25) 25 170 515 @ 11:15 AM 30.17 10 0
MPZMOUNT PLEASANT09:55 PM 32(34/28) 27 220 1017 @ 12:15 AM 30.17 10 0
AWGWASHINGTON09:55 PM 30(32/25) 28 22 92 220 718 @ 02:55 PM 30.16 10 0
RDKRED OAK09:55 PM 32(37/12) 30 210 518 @ 12:55 PM 30.15 10 0
CSQCRESTON09:55 PM 32(34/16) 27 230 715 @ 01:35 PM 30.15 10 0
FFLFAIRFIELD09:55 PM 30(34/25) 23 22 75 220 820 @ 12:15 AM 30.15 10 0
PEAPELLA09:55 PM 35(35/22) 27 28 72 240 818 @ 04:15 PM 30.14 10 0
CNCCHARITON09:55 PM 34(34/19) 27 26 75 230 10G1515 @ 09:55 PM 30.14 10 0
CWICLINTON09:56 PM 27(32/20) 23 19 85 240 720 @ 01:56 PM 30.14 10 0
I75Osceola09:55 PM 35(36/18) 28 27 75 210 1016 @ 03:15 PM 30.14 10 0
OOAOskaloosa09:55 PM 32(32/23) 26 240 1013 @ 12:15 AM 30.14 10 0
OXVKnoxville09:55 PM 36(36/21) 28 28 72 230 1116 @ 01:15 AM 30.13 10 0
GGIGrinnell10:15 PM 28(32/21) 24 21 85 230 618 @ 03:35 PM 30.13 10 0
CBFCOUNCIL BLUFFS09:55 PM 39(43/14) 36 33 89 210 818 @ 12:35 PM 30.13 10 0
AIOATLANTIC09:55 PM 30(37/12) 30 22 100 210 721 @ 01:55 PM 30.13 10 0
IKVANKENY09:55 PM 32(36/19) 27 @ 06:00 PM 30.13 10 0
ADUAUDUBON09:55 PM 34(39/14) 30 85 0 020 @ 02:15 PM 30.12 10 0
DNSDENISON09:55 PM 32(43/9) 30 0 020 @ 12:35 PM 30.12 10 0
MXOMONTICELLO MUNI09:55 PM 25(30/14) 21 85 0 014 @ 04:55 PM 30.12 10 0
TNUNEWTON MUNI09:55 PM 30(32/21) 25 22 81 230 820 @ 02:55 PM 30.12 10 0
VTIVINTON09:55 PM 28(30/16) 23 23 81 220 411 @ 03:15 PM 30.12 10 0
CAVCLARION09:55 PM 27(34/5) 23 22 85 330 419 @ 12:35 PM 30.11 10 0
PROPerry10:35 PM 31(38/15) 28 26 89 260 417 @ 03:55 PM 30.11 10 0
CINCARROLL09:55 PM 34(41/14) 32 260 525 @ 01:35 PM 30.1 10 0
CKPCherokee09:55 PM 32(43/8) 30 0 017 @ 03:35 PM 30.1 10 0
IFAIowa Falls09:55 PM 30(33/12) 26 25 85 270 416 @ 03:15 PM 30.1 10 0
FODFORT DODGE09:56 PM 28(39/10) 26 23 92 230 418 @ 02:25 PM 30.1 9 0 0.0001
LRJLE MARS09:55 PM 27(48/7) 25 92 0 020 @ 12:55 PM 30.1 10 0
IIBINDEPENDENCE09:55 PM 26(31/11) 23 19 88 210 515 @ 02:35 PM 30.1 10 0
HPTHampton09:55 PM 27(32/9) 27 18 100 300 820 @ 04:15 PM 30.1 10 0
FXYForest City09:55 PM 27(32/3) 27 20 100 290 518 @ 01:35 PM 30.09 10 0
SLBStorm Lake09:55 PM 32(41/9) 28 270 923 @ 12:15 PM 30.09 10 0
AXAALGONA09:55 PM 28(36/5) 27 24 96 330 321 @ 12:15 PM 30.09 10 0
ORCOrange City09:55 PM 37(46/9) 30 76 0 017 @ 10:35 AM 30.09 10 0
BNWBOONE MUNI09:55 PM 30(37/18) 28 22 92 240 722 @ 02:55 PM 30.09 10 0
EBSWebster City09:55 PM 28(37/10) 27 20 96 240 719 @ 02:15 PM 30.08 9 0
SHLSHELDON09:55 PM 25(46/5) 25 100 0 023 @ 01:55 PM 30.08 9 0
CCYCHARLES CITY09:55 PM 23(27/9) 21 13 92 240 817 @ 12:55 PM 30.08 10 0
DEHDECORAH09:55 PM 27(28/12) 25 92 0 019 @ 02:55 PM 30.05 10 0
HNRHARLAN09:55 PM M(0/0) M M M @ 06:00 PM 0